Time;durP1;ratioP1;P1;durP2;ratioP2;P2;SDS_P1;SDS_P2;PMS_P1;PMS_P2;Temp;Humidity;BMP_temperature;BMP_pressure;BME280_temperature;BME280_humidity;BME280_pressure;Samples;Min_cycle;Max_cycle;Signal;HPM_P1;HPM_P2
2022/12/15 00:39:58;;;;;;;13.40;8.90;;;;;;;;;;6213674;23;20355;-70
2022/12/15 00:42:24;;;;;;;11.53;8.40;;;;;;;;;;6185881;23;20874;-69
2022/12/15 00:44:50;;;;;;;11.47;8.80;;;;;;;;;;6186563;23;20921;-70
2022/12/15 00:47:24;;;;;;;11.10;8.07;;;;;;;;;;6186532;23;20450;-71
2022/12/15 01:20:19;;;;;;;10.03;8.10;;;;;;;;;;6212898;23;21193;-70
2022/12/15 01:22:45;;;;;;;10.37;7.70;;;;;;;;;;6212603;23;20382;-73
2022/12/15 01:25:10;;;;;;;9.00;7.30;;;;;;;;;;6214270;23;20362;-71
2022/12/15 01:27:36;;;;;;;11.73;8.50;;;;;;;;;;6187168;23;20462;-73
2022/12/15 01:30:02;;;;;;;10.10;7.53;;;;;;;;;;6211004;23;20166;-71
2022/12/15 01:32:27;;;;;;;11.20;7.53;;;;;;;;;;6213658;23;20242;-70
2022/12/15 01:34:55;;;;;;;8.50;7.20;;;;;;;;;;6208688;23;20151;-69
2022/12/15 01:37:21;;;;;;;11.37;8.37;;;;;;;;;;6184394;23;20198;-70
2022/12/15 01:42:30;;;;;;;9.40;7.57;;;;;;;;;;6211607;23;20194;-70
2022/12/15 01:45:14;;;;;;;10.20;7.40;;;;;;;;;;6208502;23;20379;-70
2022/12/15 01:47:40;;;;;;;8.57;6.60;;;;;;;;;;6208745;23;20258;-70
2022/12/15 01:50:07;;;;;;;11.90;7.60;;;;;;;;;;6207934;23;20386;-68
2022/12/15 01:52:33;;;;;;;10.07;7.90;;;;;;;;;;6183757;23;20156;-72
2022/12/15 01:54:58;;;;;;;9.97;7.77;;;;;;;;;;6211822;23;20705;-72
2022/12/15 01:57:31;;;;;;;8.57;6.97;;;;;;;;;;6213020;23;20258;-73
2022/12/15 01:59:58;;;;;;;9.30;7.20;;;;;;;;;;6213247;23;20148;-69
2022/12/15 02:02:25;;;;;;;8.23;6.70;;;;;;;;;;6213753;23;20437;-72
2022/12/15 02:04:51;;;;;;;10.17;7.47;;;;;;;;;;6212516;23;20375;-72
2022/12/15 02:07:17;;;;;;;10.17;7.70;;;;;;;;;;6186704;23;20426;-70
2022/12/15 02:09:44;;;;;;;7.00;6.23;;;;;;;;;;6185885;23;20394;-69
2022/12/15 02:12:22;;;;;;;10.53;7.57;;;;;;;;;;6185302;23;20436;-71
2022/12/15 02:15:06;;;;;;;9.50;6.77;;;;;;;;;;6212774;23;20366;-72
2022/12/15 02:17:47;;;;;;;11.07;7.13;;;;;;;;;;6212332;23;20419;-70
2022/12/15 02:20:22;;;;;;;12.37;6.67;;;;;;;;;;6185942;23;20378;-71
2022/12/15 02:23:02;;;;;;;10.43;7.07;;;;;;;;;;6213768;23;20764;-70
2022/12/15 02:25:50;;;;;;;10.30;6.23;;;;;;;;;;6215351;23;20822;-72
2022/12/15 02:28:29;;;;;;;8.87;6.57;;;;;;;;;;6158564;23;20402;-70
2022/12/15 02:33:56;;;;;;;8.20;5.90;;;;;;;;;;6214095;23;20466;-74
2022/12/15 02:36:28;;;;;;;8.63;6.60;;;;;;;;;;6189914;23;20366;-72
2022/12/15 02:38:53;;;;;;;8.90;6.10;;;;;;;;;;6189839;23;20490;-73
2022/12/15 02:41:36;;;;;;;8.77;6.23;;;;;;;;;;6215973;23;20414;-72
2022/12/15 02:44:05;;;;;;;9.33;6.17;;;;;;;;;;6216795;23;20140;-73
2022/12/15 02:46:34;;;;;;;7.30;5.63;;;;;;;;;;6189538;23;20446;-68
2022/12/15 02:49:07;;;;;;;9.13;6.20;;;;;;;;;;6214293;23;20383;-72
2022/12/15 02:51:51;;;;;;;9.03;5.73;;;;;;;;;;6216287;23;20351;-71
2022/12/15 02:54:43;;;;;;;9.10;6.63;;;;;;;;;;6215588;23;20375;-72
2022/12/15 02:57:44;;;;;;;9.67;6.80;;;;;;;;;;6189879;23;20379;-73
2022/12/15 03:00:10;;;;;;;12.60;6.90;;;;;;;;;;6176711;23;20375;-74
2022/12/15 03:02:37;;;;;;;8.70;6.60;;;;;;;;;;6216221;23;20370;-70
2022/12/15 03:05:02;;;;;;;12.80;6.40;;;;;;;;;;6215505;23;20719;-72
2022/12/15 03:07:28;;;;;;;9.67;6.53;;;;;;;;;;6188572;23;20423;-71
2022/12/15 03:09:58;;;;;;;7.07;5.70;;;;;;;;;;6189058;23;20156;-71
2022/12/15 03:12:24;;;;;;;8.53;6.60;;;;;;;;;;6216717;23;20223;-70
2022/12/15 03:14:49;;;;;;;9.60;6.60;;;;;;;;;;6212823;23;20395;-74
2022/12/15 03:17:15;;;;;;;11.10;6.93;;;;;;;;;;6187435;23;20156;-71
2022/12/15 03:19:40;;;;;;;9.83;6.80;;;;;;;;;;6215154;23;20144;-72
2022/12/15 03:22:05;;;;;;;10.93;7.07;;;;;;;;;;6214757;23;20221;-70
2022/12/15 03:24:31;;;;;;;7.97;6.63;;;;;;;;;;6215913;23;20148;-73
2022/12/15 03:26:56;;;;;;;9.43;6.40;;;;;;;;;;6188698;23;20171;-72
2022/12/15 03:29:22;;;;;;;10.00;7.20;;;;;;;;;;6215529;23;20678;-68
2022/12/15 03:31:47;;;;;;;9.20;6.30;;;;;;;;;;6214322;23;20152;-72
2022/12/15 03:34:13;;;;;;;10.63;7.30;;;;;;;;;;6215536;23;20166;-71
2022/12/15 03:36:38;;;;;;;11.80;6.60;;;;;;;;;;6216243;23;20151;-71
2022/12/15 03:39:04;;;;;;;6.37;5.27;;;;;;;;;;6189488;23;20191;-72
2022/12/15 03:41:30;;;;;;;9.20;6.53;;;;;;;;;;6188548;23;20154;-70
2022/12/15 03:43:55;;;;;;;8.40;6.30;;;;;;;;;;6188044;23;20378;-71
2022/12/15 03:46:20;;;;;;;7.97;6.33;;;;;;;;;;6188428;23;20957;-74
2022/12/15 03:48:46;;;;;;;10.23;6.17;;;;;;;;;;6215389;23;20218;-71
2022/12/15 03:51:11;;;;;;;9.27;5.70;;;;;;;;;;6186815;23;20502;-70
2022/12/15 03:53:37;;;;;;;10.60;6.53;;;;;;;;;;6215601;23;20164;-71
2022/12/15 03:56:02;;;;;;;8.50;5.77;;;;;;;;;;6215646;23;20147;-71
2022/12/15 03:58:28;;;;;;;7.70;5.30;;;;;;;;;;6213789;23;20167;-71
2022/12/15 04:00:54;;;;;;;11.43;6.20;;;;;;;;;;6214831;23;20151;-70
2022/12/15 04:03:20;;;;;;;10.77;6.00;;;;;;;;;;6214305;23;20673;-72
2022/12/15 04:05:45;;;;;;;10.30;5.90;;;;;;;;;;6188272;23;20453;-71
2022/12/15 04:08:11;;;;;;;10.07;6.30;;;;;;;;;;6187775;23;20473;-71
2022/12/15 04:10:39;;;;;;;7.70;5.00;;;;;;;;;;6185284;23;20663;-71
2022/12/15 04:13:06;;;;;;;8.50;5.80;;;;;;;;;;6188531;23;20387;-70
2022/12/15 04:15:33;;;;;;;7.80;5.10;;;;;;;;;;6215537;23;20375;-71
2022/12/15 04:17:59;;;;;;;8.53;4.63;;;;;;;;;;6187227;23;20421;-71
2022/12/15 04:20:24;;;;;;;6.07;4.67;;;;;;;;;;6214067;23;20368;-72
2022/12/15 05:31:57;;;;;;;;;;;;;;;;;;;;;
2022/12/15 05:34:25;;;;;;;8.02;4.90;;;;;;;;;;5067281;28;20423;-74
2022/12/15 05:37:20;;;;;;;11.20;4.70;;;;;;;;;;5057842;28;20201;-74
2022/12/15 05:39:48;;;;;;;9.30;5.30;;;;;;;;;;5042207;28;20463;-74
2022/12/15 05:42:26;;;;;;;;;;;;;;;;;;;;;
2022/12/15 05:44:51;;;;;;;8.50;5.32;;;;;;;;;;5060431;28;20457;-74
2022/12/15 05:47:19;;;;;;;6.70;4.87;;;;;;;;;;5071439;28;20179;-75
2022/12/15 05:49:49;;;;;;;8.43;5.50;;;;;;;;;;5068747;28;20175;-75
2022/12/15 05:52:39;;;;;;;13.13;5.63;;;;;;;;;;5064097;28;20521;-74
2022/12/15 05:55:04;;;;;;;8.57;5.38;;;;;;;;;;5069991;28;20419;-75
2022/12/15 05:57:39;;;;;;;7.33;4.20;;;;;;;;;;5060927;28;20716;-75
2022/12/15 06:00:05;;;;;;;8.10;5.50;;;;;;;;;;5039936;28;20414;-74
2022/12/15 06:02:54;;;;;;;7.53;5.47;;;;;;;;;;5043785;28;20518;-75
2022/12/15 06:05:18;;;;;;;9.07;5.25;;;;;;;;;;5056950;28;20426;-75
2022/12/15 06:07:55;;;;;;;7.23;5.77;;;;;;;;;;5059685;28;20225;-75
2022/12/15 06:10:21;;;;;;;9.65;5.40;;;;;;;;;;5054762;28;20398;-75
2022/12/15 06:12:51;;;;;;;9.90;6.00;;;;;;;;;;5054484;28;20202;-75
2022/12/15 06:15:21;;;;;;;6.83;5.60;;;;;;;;;;5040574;28;20422;-74
2022/12/15 06:18:09;;;;;;;12.50;5.20;;;;;;;;;;5057722;28;20408;-75
2022/12/15 06:20:37;;;;;;;9.05;5.80;;;;;;;;;;5036558;28;20801;-75
2022/12/15 06:23:26;;;;;;;9.33;5.33;;;;;;;;;;5057372;28;20194;-75
2022/12/15 06:25:52;;;;;;;8.07;5.80;;;;;;;;;;5043345;28;20452;-74
2022/12/15 06:28:35;;;;;;;10.00;5.43;;;;;;;;;;5052612;28;20711;-75
2022/12/15 06:31:01;;;;;;;7.15;5.43;;;;;;;;;;5072383;28;20934;-75
2022/12/15 06:33:37;;;;;;;8.13;5.10;;;;;;;;;;5059534;28;20231;-75
2022/12/15 06:36:10;;;;;;;7.40;5.53;;;;;;;;;;5070894;28;20420;-75
2022/12/15 06:51:55;;;;;;;7.10;5.03;;;;;;;;;;6263202;22;1302032;-74
2022/12/15 06:54:33;;;;;;;;;;;;;;;;;;;;;
2022/12/15 06:57:07;;;;;;;8.20;5.28;;;;;;;;;;6310669;22;20435;-74
2022/12/15 07:02:28;;;;;;;7.05;5.05;;;;;;;;;;6231348;22;20365;-74
2022/12/15 07:08:04;;;;;;;6.32;4.45;;;;;;;;;;6204187;23;20371;-74
2022/12/15 07:10:37;;;;;;;7.93;5.30;;;;;;;;;;6281415;22;20165;-74
2022/12/15 07:13:16;;;;;;;10.30;4.53;;;;;;;;;;6280474;22;20337;-74
2022/12/15 07:15:46;;;;;;;8.20;4.80;;;;;;;;;;6280551;22;20333;-76
2022/12/15 07:18:13;;;;;;;7.70;4.60;;;;;;;;;;6277615;22;20389;-74
2022/12/15 07:21:03;;;;;;;9.37;5.90;;;;;;;;;;6277698;22;20372;-75
2022/12/15 07:23:28;;;;;;;6.90;4.70;;;;;;;;;;6279772;22;20341;-75
2022/12/15 07:25:54;;;;;;;5.37;4.20;;;;;;;;;;6280672;22;20379;-74
2022/12/15 07:28:19;;;;;;;6.83;5.13;;;;;;;;;;6278363;22;20613;-74
2022/12/15 07:30:44;;;;;;;6.90;4.43;;;;;;;;;;6281107;22;20168;-74
2022/12/15 07:33:09;;;;;;;12.87;5.40;;;;;;;;;;6279157;22;20191;-74
2022/12/15 07:35:35;;;;;;;12.03;6.40;;;;;;;;;;6280659;22;20146;-75
2022/12/15 07:38:04;;;;;;;11.80;7.07;;;;;;;;;;6278156;22;20169;-74
2022/12/15 07:40:29;;;;;;;9.00;6.07;;;;;;;;;;6278617;22;20149;-75
2022/12/15 07:42:54;;;;;;;16.90;5.77;;;;;;;;;;6279362;22;20436;-74
2022/12/15 07:45:20;;;;;;;8.67;5.03;;;;;;;;;;6303636;22;20200;-74
2022/12/15 07:47:48;;;;;;;5.97;4.17;;;;;;;;;;6277818;22;20513;-74
2022/12/15 07:50:14;;;;;;;6.27;5.00;;;;;;;;;;6280888;22;20182;-74
2022/12/15 07:52:39;;;;;;;8.53;4.53;;;;;;;;;;6270307;22;20352;-74
2022/12/15 07:55:05;;;;;;;7.17;5.30;;;;;;;;;;6273041;22;20276;-74
2022/12/15 07:57:31;;;;;;;6.80;4.00;;;;;;;;;;6270380;22;20528;-74
2022/12/15 07:59:56;;;;;;;10.80;5.10;;;;;;;;;;6273412;22;20743;-74
2022/12/15 08:02:22;;;;;;;6.47;4.60;;;;;;;;;;6296948;22;20389;-74
2022/12/15 08:04:47;;;;;;;7.30;4.90;;;;;;;;;;6297705;22;20158;-74
2022/12/15 08:07:12;;;;;;;9.67;4.43;;;;;;;;;;6273481;22;20515;-74
2022/12/15 08:09:38;;;;;;;9.40;4.60;;;;;;;;;;6272438;22;20170;-74
2022/12/15 08:12:03;;;;;;;7.67;4.60;;;;;;;;;;6273621;22;20656;-75
2022/12/15 08:14:28;;;;;;;12.07;5.50;;;;;;;;;;6271469;22;20155;-74
2022/12/15 08:16:54;;;;;;;10.80;4.50;;;;;;;;;;6273788;22;20168;-74
2022/12/15 08:19:19;;;;;;;5.30;4.17;;;;;;;;;;6273303;22;20216;-75
2022/12/15 08:21:45;;;;;;;7.67;5.37;;;;;;;;;;6272945;22;20204;-74
2022/12/15 08:24:12;;;;;;;7.70;5.33;;;;;;;;;;6271959;22;20594;-74
2022/12/15 08:26:37;;;;;;;11.90;6.63;;;;;;;;;;6272769;22;20653;-74
2022/12/15 08:29:04;;;;;;;6.77;4.50;;;;;;;;;;6273257;22;20490;-74
2022/12/15 08:31:31;;;;;;;7.13;4.30;;;;;;;;;;6273365;22;20478;-75
2022/12/15 08:33:57;;;;;;;7.80;4.43;;;;;;;;;;6275095;22;20366;-75
2022/12/15 08:36:22;;;;;;;6.03;4.20;;;;;;;;;;6274589;22;20358;-74
2022/12/15 08:38:48;;;;;;;6.47;3.90;;;;;;;;;;6296685;22;20181;-75
2022/12/15 08:41:13;;;;;;;7.50;4.53;;;;;;;;;;6273918;22;20158;-74
2022/12/15 08:43:39;;;;;;;8.70;4.27;;;;;;;;;;6273835;22;20582;-74
2022/12/15 08:46:04;;;;;;;7.37;3.90;;;;;;;;;;6274043;22;20227;-74
2022/12/15 08:48:30;;;;;;;7.07;4.40;;;;;;;;;;6273511;22;20174;-75
2022/12/15 08:50:56;;;;;;;7.37;4.40;;;;;;;;;;6276644;22;20200;-74
2022/12/15 08:53:22;;;;;;;5.20;3.57;;;;;;;;;;6275284;22;20188;-74
2022/12/15 08:55:47;;;;;;;13.23;3.90;;;;;;;;;;6274384;22;20362;-74
2022/12/15 08:58:12;;;;;;;10.00;4.43;;;;;;;;;;6274721;22;20633;-74
2022/12/15 09:00:38;;;;;;;9.27;4.23;;;;;;;;;;6299476;22;20243;-74
2022/12/15 09:03:03;;;;;;;7.87;6.07;;;;;;;;;;6275120;22;20143;-75
2022/12/15 09:05:28;;;;;;;14.33;4.57;;;;;;;;;;6272520;22;20170;-75
2022/12/15 09:07:54;;;;;;;7.93;5.13;;;;;;;;;;6272167;22;20189;-75
2022/12/15 09:10:20;;;;;;;7.10;4.73;;;;;;;;;;6274169;22;20163;-75
2022/12/15 09:12:45;;;;;;;8.13;4.87;;;;;;;;;;6298049;22;20465;-74
2022/12/15 09:15:11;;;;;;;8.17;5.27;;;;;;;;;;6272137;22;20646;-75
2022/12/15 09:17:36;;;;;;;8.50;5.13;;;;;;;;;;6277204;22;20177;-74
2022/12/15 09:20:02;;;;;;;8.97;3.80;;;;;;;;;;6271724;22;20237;-75
2022/12/15 09:22:30;;;;;;;7.50;5.30;;;;;;;;;;6297959;22;20155;-74
2022/12/15 09:24:56;;;;;;;11.67;4.77;;;;;;;;;;6270851;22;20431;-75
2022/12/15 09:27:21;;;;;;;6.43;5.03;;;;;;;;;;6271319;22;20381;-74
2022/12/15 09:29:46;;;;;;;6.67;4.07;;;;;;;;;;6271296;22;20178;-74
2022/12/15 09:32:12;;;;;;;7.20;4.00;;;;;;;;;;6271347;22;20683;-75
2022/12/15 09:34:38;;;;;;;6.73;4.40;;;;;;;;;;6272157;22;20150;-74
2022/12/15 09:37:03;;;;;;;10.00;4.63;;;;;;;;;;6297427;22;20378;-74
2022/12/15 09:39:28;;;;;;;6.67;4.20;;;;;;;;;;6296143;22;20551;-74
2022/12/15 09:41:57;;;;;;;9.97;4.73;;;;;;;;;;6271827;22;20190;-74
2022/12/15 09:44:23;;;;;;;7.57;4.30;;;;;;;;;;6272623;22;20146;-74
2022/12/15 09:46:53;;;;;;;7.43;4.40;;;;;;;;;;6271435;22;20377;-74
2022/12/15 09:49:31;;;;;;;9.70;4.70;;;;;;;;;;6272250;22;20409;-74
2022/12/15 09:52:02;;;;;;;7.87;4.60;;;;;;;;;;6271558;22;20380;-74
2022/12/15 09:54:30;;;;;;;8.43;5.67;;;;;;;;;;6271907;22;20345;-74
2022/12/15 09:56:56;;;;;;;7.60;4.40;;;;;;;;;;6270642;22;20370;-74
2022/12/15 09:59:30;;;;;;;8.80;4.33;;;;;;;;;;6271649;22;20384;-74
2022/12/15 10:02:12;;;;;;;11.87;4.90;;;;;;;;;;6272622;22;20424;-75
2022/12/15 10:04:40;;;;;;;8.90;4.40;;;;;;;;;;6271046;22;20373;-75
2022/12/15 10:07:09;;;;;;;8.00;4.90;;;;;;;;;;6272956;22;20354;-76
2022/12/15 10:09:35;;;;;;;7.63;5.27;;;;;;;;;;6296293;22;20421;-75
2022/12/15 10:12:04;;;;;;;6.20;4.30;;;;;;;;;;6270452;22;20440;-75
2022/12/15 10:14:43;;;;;;;7.73;4.90;;;;;;;;;;6271156;22;20365;-75
2022/12/15 10:17:27;;;;;;;12.60;4.57;;;;;;;;;;6271084;22;20357;-75
2022/12/15 10:19:52;;;;;;;7.73;5.00;;;;;;;;;;6272629;22;20423;-74
2022/12/15 10:22:25;;;;;;;8.30;4.70;;;;;;;;;;6271523;22;20370;-75
2022/12/15 10:24:50;;;;;;;9.87;5.67;;;;;;;;;;6272430;22;20146;-75
2022/12/15 10:27:23;;;;;;;7.53;4.53;;;;;;;;;;6270554;22;20488;-75
2022/12/15 10:29:58;;;;;;;9.80;4.80;;;;;;;;;;6271128;22;20174;-75
2022/12/15 10:32:43;;;;;;;9.73;5.03;;;;;;;;;;6272177;22;20379;-75
2022/12/15 10:35:16;;;;;;;9.47;4.87;;;;;;;;;;6269680;22;20377;-75
2022/12/15 10:37:42;;;;;;;8.97;5.03;;;;;;;;;;6270712;22;20397;-75
2022/12/15 10:40:08;;;;;;;10.00;5.47;;;;;;;;;;6272486;22;20368;-75
2022/12/15 10:42:43;;;;;;;7.63;4.70;;;;;;;;;;6272306;22;20149;-75
2022/12/15 10:45:27;;;;;;;7.93;5.63;;;;;;;;;;6272485;22;20154;-76
2022/12/15 10:47:57;;;;;;;8.47;4.57;;;;;;;;;;6272158;22;20381;-75
2022/12/15 10:50:23;;;;;;;10.70;5.43;;;;;;;;;;6269070;22;20433;-76
2022/12/15 10:52:49;;;;;;;8.07;5.23;;;;;;;;;;6270077;22;20368;-75
2022/12/15 10:55:30;;;;;;;8.87;5.30;;;;;;;;;;6270067;22;20381;-75
2022/12/15 10:57:57;;;;;;;6.37;4.43;;;;;;;;;;6269545;22;20173;-75
2022/12/15 11:00:27;;;;;;;8.60;4.33;;;;;;;;;;6269627;22;20393;-75
2022/12/15 11:02:53;;;;;;;14.23;4.97;;;;;;;;;;6271588;22;20365;-76
2022/12/15 11:05:18;;;;;;;9.37;5.30;;;;;;;;;;6272418;22;20464;-75
2022/12/15 11:07:44;;;;;;;8.13;4.50;;;;;;;;;;6267375;22;20484;-75
2022/12/15 11:10:18;;;;;;;6.23;4.80;;;;;;;;;;6267836;22;20178;-75
2022/12/15 11:12:52;;;;;;;7.57;4.57;;;;;;;;;;6271833;22;20343;-76
2022/12/15 11:15:24;;;;;;;7.37;4.83;;;;;;;;;;6270196;22;20373;-76
2022/12/15 11:17:55;;;;;;;8.93;5.20;;;;;;;;;;6270020;22;20399;-75
2022/12/15 11:20:22;;;;;;;9.40;4.93;;;;;;;;;;6270915;22;20365;-76
2022/12/15 11:23:13;;;;;;;6.83;4.83;;;;;;;;;;6270738;22;20361;-75
2022/12/15 11:25:41;;;;;;;9.40;4.90;;;;;;;;;;6268451;22;20430;-76
2022/12/15 11:28:14;;;;;;;8.97;4.73;;;;;;;;;;6295637;22;20494;-74
2022/12/15 11:30:46;;;;;;;8.70;4.87;;;;;;;;;;6271817;22;20417;-75
2022/12/15 11:33:11;;;;;;;7.43;4.73;;;;;;;;;;6272194;22;20377;-75
2022/12/15 11:35:46;;;;;;;5.83;4.03;;;;;;;;;;6274091;22;20442;-76
2022/12/15 11:38:11;;;;;;;9.43;4.60;;;;;;;;;;6271565;22;20169;-76
2022/12/15 11:40:43;;;;;;;10.53;4.67;;;;;;;;;;6272809;22;20368;-75
2022/12/15 11:43:26;;;;;;;8.37;4.33;;;;;;;;;;6272694;22;25050;-75
2022/12/15 11:45:55;;;;;;;12.03;5.07;;;;;;;;;;6272373;22;20377;-76
2022/12/15 11:48:21;;;;;;;16.60;5.03;;;;;;;;;;6271793;22;20443;-75
2022/12/15 11:50:49;;;;;;;10.63;4.80;;;;;;;;;;6227837;22;20446;-70
2022/12/15 11:53:14;;;;;;;9.03;4.87;;;;;;;;;;6185253;23;20727;-71
2022/12/15 11:55:58;;;;;;;12.60;5.30;;;;;;;;;;6212339;23;20367;-70
2022/12/15 11:58:35;;;;;;;8.80;4.93;;;;;;;;;;6211490;23;20125;-70
2022/12/15 12:01:00;;;;;;;10.60;5.50;;;;;;;;;;6212191;23;20394;-71
2022/12/15 12:03:29;;;;;;;11.40;4.47;;;;;;;;;;6212067;23;20368;-71
2022/12/15 12:05:54;;;;;;;12.43;4.93;;;;;;;;;;6210944;23;20155;-70
2022/12/15 12:08:38;;;;;;;8.03;5.53;;;;;;;;;;6185528;23;20379;-71
2022/12/15 12:11:07;;;;;;;11.87;6.30;;;;;;;;;;6211675;23;20203;-70
2022/12/15 12:13:52;;;;;;;8.63;5.40;;;;;;;;;;6212156;23;20375;-70
2022/12/15 12:16:35;;;;;;;8.83;5.10;;;;;;;;;;6208577;23;20375;-70
2022/12/15 12:19:05;;;;;;;10.13;5.60;;;;;;;;;;6211081;23;20409;-70
2022/12/15 12:21:34;;;;;;;12.27;5.93;;;;;;;;;;6184950;23;20406;-70
2022/12/15 12:24:01;;;;;;;11.93;6.07;;;;;;;;;;6212301;23;20420;-70
2022/12/15 12:26:42;;;;;;;9.70;6.10;;;;;;;;;;6211777;23;20367;-71
2022/12/15 12:29:11;;;;;;;10.33;6.20;;;;;;;;;;6209249;23;20374;-70
2022/12/15 12:31:45;;;;;;;10.90;6.23;;;;;;;;;;6210697;23;20837;-70
2022/12/15 12:34:14;;;;;;;10.20;5.83;;;;;;;;;;6182325;23;20376;-70
2022/12/15 12:36:42;;;;;;;15.53;6.73;;;;;;;;;;6207798;23;20364;-70
2022/12/15 12:39:13;;;;;;;12.03;5.57;;;;;;;;;;6211558;23;20395;-70
2022/12/15 12:41:43;;;;;;;8.10;4.70;;;;;;;;;;6185508;23;20506;-70
2022/12/15 12:44:27;;;;;;;7.13;5.30;;;;;;;;;;6208006;23;20417;-71
2022/12/15 12:46:55;;;;;;;11.03;4.83;;;;;;;;;;6211843;23;20371;-70
2022/12/15 12:49:29;;;;;;;9.30;5.00;;;;;;;;;;6209155;23;20713;-71
2022/12/15 12:51:57;;;;;;;7.83;4.70;;;;;;;;;;6211982;23;20361;-70
2022/12/15 12:54:34;;;;;;;5.80;3.97;;;;;;;;;;6209137;23;20453;-70
2022/12/15 12:57:00;;;;;;;8.63;5.30;;;;;;;;;;6185013;23;20373;-71
2022/12/15 12:59:29;;;;;;;10.13;5.67;;;;;;;;;;6209974;23;20363;-70
2022/12/15 13:01:55;;;;;;;8.60;5.20;;;;;;;;;;6211421;23;20363;-70
2022/12/15 13:04:49;;;;;;;9.13;4.97;;;;;;;;;;6210391;23;20367;-70
2022/12/15 13:07:35;;;;;;;14.83;5.53;;;;;;;;;;6211864;23;20825;-70
2022/12/15 13:10:11;;;;;;;12.20;5.97;;;;;;;;;;6211146;23;20859;-70
2022/12/15 13:12:58;;;;;;;8.20;5.10;;;;;;;;;;6211266;23;20791;-69
2022/12/15 13:15:26;;;;;;;10.27;4.70;;;;;;;;;;6210880;23;20369;-72
2022/12/15 13:17:57;;;;;;;9.43;5.20;;;;;;;;;;6210629;23;20394;-69
2022/12/15 13:20:29;;;;;;;8.40;5.30;;;;;;;;;;6209057;23;20387;-70
2022/12/15 13:22:55;;;;;;;7.07;5.20;;;;;;;;;;6209802;23;20375;-72
2022/12/15 13:25:32;;;;;;;6.43;4.50;;;;;;;;;;6211704;23;20410;-72
2022/12/15 13:27:59;;;;;;;10.70;5.00;;;;;;;;;;6182597;23;20989;-72
2022/12/15 13:30:25;;;;;;;9.03;4.60;;;;;;;;;;6211131;23;20422;-72
2022/12/15 13:32:51;;;;;;;10.50;4.73;;;;;;;;;;6184718;23;20391;-70
2022/12/15 13:35:21;;;;;;;8.23;5.17;;;;;;;;;;6211897;23;20171;-72
2022/12/15 13:37:54;;;;;;;8.70;5.10;;;;;;;;;;6211325;23;20373;-70
2022/12/15 13:40:32;;;;;;;8.50;4.73;;;;;;;;;;6184455;23;20709;-72
2022/12/15 13:43:05;;;;;;;7.30;4.43;;;;;;;;;;6211220;23;20371;-72
2022/12/15 13:45:43;;;;;;;9.90;5.10;;;;;;;;;;6183804;23;20441;-72
2022/12/15 13:48:21;;;;;;;8.93;5.50;;;;;;;;;;6210627;23;20369;-70
2022/12/15 13:50:50;;;;;;;9.67;5.20;;;;;;;;;;6209021;23;20920;-70
2022/12/15 13:53:17;;;;;;;9.17;6.07;;;;;;;;;;6183168;23;20378;-71
2022/12/15 13:56:12;;;;;;;8.37;5.40;;;;;;;;;;6211354;23;20927;-71
2022/12/15 13:58:42;;;;;;;11.30;6.00;;;;;;;;;;6177247;23;20471;-71
2022/12/15 14:01:18;;;;;;;8.10;5.67;;;;;;;;;;6209974;23;20391;-72
2022/12/15 14:03:57;;;;;;;8.17;6.47;;;;;;;;;;6211268;23;20706;-71
2022/12/15 14:06:22;;;;;;;8.27;5.10;;;;;;;;;;6184464;23;20382;-72
2022/12/15 14:08:49;;;;;;;17.90;5.23;;;;;;;;;;6183171;23;20458;-72
2022/12/15 14:11:21;;;;;;;8.53;6.10;;;;;;;;;;6207377;23;20182;-72
2022/12/15 14:13:46;;;;;;;7.77;4.90;;;;;;;;;;6209496;23;20351;-71
2022/12/15 14:16:19;;;;;;;8.17;5.60;;;;;;;;;;6208276;23;20366;-72
2022/12/15 14:19:00;;;;;;;9.57;4.70;;;;;;;;;;6206752;23;20147;-72
2022/12/15 14:21:26;;;;;;;10.33;6.70;;;;;;;;;;6208142;23;20383;-72
2022/12/15 14:23:51;;;;;;;13.53;6.77;;;;;;;;;;6210919;23;20759;-71
2022/12/15 14:26:17;;;;;;;10.63;6.20;;;;;;;;;;6210981;23;20144;-70
2022/12/15 14:28:44;;;;;;;9.83;5.53;;;;;;;;;;6208821;23;20175;-72
2022/12/15 14:31:12;;;;;;;10.63;5.50;;;;;;;;;;6184335;23;20689;-72
2022/12/15 14:33:40;;;;;;;15.03;6.37;;;;;;;;;;6210808;23;20395;-72
2022/12/15 14:36:07;;;;;;;8.20;5.93;;;;;;;;;;6211021;23;20363;-72
2022/12/15 14:38:41;;;;;;;10.57;5.80;;;;;;;;;;6209706;23;20398;-72
2022/12/15 14:41:09;;;;;;;11.87;6.83;;;;;;;;;;6184317;23;20391;-72
2022/12/15 14:43:37;;;;;;;8.50;5.97;;;;;;;;;;6209406;23;20832;-72
2022/12/15 14:46:08;;;;;;;10.17;5.90;;;;;;;;;;6210888;23;20374;-72
2022/12/15 14:48:35;;;;;;;10.10;6.13;;;;;;;;;;6210599;23;20378;-72
2022/12/15 14:51:01;;;;;;;12.10;5.97;;;;;;;;;;6198888;23;20920;-74
2022/12/15 14:53:30;;;;;;;12.73;5.77;;;;;;;;;;6210658;23;20424;-71
2022/12/15 14:55:55;;;;;;;13.10;6.17;;;;;;;;;;6208633;23;20405;-73
2022/12/15 14:58:23;;;;;;;10.70;5.70;;;;;;;;;;6207433;23;20370;-73
2022/12/15 15:00:50;;;;;;;9.10;6.43;;;;;;;;;;6207387;23;20186;-72
2022/12/15 15:03:17;;;;;;;19.20;5.83;;;;;;;;;;6212605;23;20888;-72
2022/12/15 15:05:52;;;;;;;11.50;7.27;;;;;;;;;;6209665;23;20386;-72
2022/12/15 15:08:28;;;;;;;14.70;7.33;;;;;;;;;;6212228;23;20366;-72
2022/12/15 15:10:54;;;;;;;8.87;5.60;;;;;;;;;;6212244;23;20426;-72
2022/12/15 15:13:21;;;;;;;14.23;7.03;;;;;;;;;;6211424;23;20421;-72
2022/12/15 15:15:51;;;;;;;12.57;6.80;;;;;;;;;;6213381;23;20749;-72
2022/12/15 15:18:19;;;;;;;10.60;6.40;;;;;;;;;;6212418;23;20366;-72
2022/12/15 15:20:48;;;;;;;10.80;6.07;;;;;;;;;;6212865;23;20468;-73
2022/12/15 15:23:18;;;;;;;11.40;7.40;;;;;;;;;;6213107;23;20371;-72
2022/12/15 15:25:50;;;;;;;16.40;6.80;;;;;;;;;;6212075;23;20371;-72
2022/12/15 15:28:18;;;;;;;11.17;7.17;;;;;;;;;;6209898;23;20375;-72
2022/12/15 15:30:50;;;;;;;10.80;7.43;;;;;;;;;;6209930;23;20426;-72
2022/12/15 15:33:16;;;;;;;11.33;7.20;;;;;;;;;;6213370;23;20466;-72
2022/12/15 15:35:42;;;;;;;14.77;8.47;;;;;;;;;;6210481;23;20956;-73
2022/12/15 15:38:25;;;;;;;16.50;7.00;;;;;;;;;;6210582;23;20387;-72
2022/12/15 15:41:07;;;;;;;11.13;6.70;;;;;;;;;;6210739;23;20413;-72
2022/12/15 15:43:33;;;;;;;13.03;7.80;;;;;;;;;;6212320;23;20355;-72
2022/12/15 15:46:04;;;;;;;10.83;7.00;;;;;;;;;;6211522;23;20429;-71
2022/12/15 15:48:31;;;;;;;11.80;7.80;;;;;;;;;;6212187;23;20201;-70
2022/12/15 15:50:58;;;;;;;12.80;7.43;;;;;;;;;;6211219;23;20939;-70
2022/12/15 15:53:24;;;;;;;10.07;6.67;;;;;;;;;;6185391;23;20378;-71
2022/12/15 15:55:50;;;;;;;11.40;8.20;;;;;;;;;;6212678;23;20447;-70
2022/12/15 15:58:19;;;;;;;11.60;7.87;;;;;;;;;;6210067;23;20148;-70
2022/12/15 16:00:44;;;;;;;15.13;8.87;;;;;;;;;;6210949;23;20390;-70
2022/12/15 16:03:10;;;;;;;16.13;9.00;;;;;;;;;;6199899;23;20371;-70
2022/12/15 16:05:35;;;;;;;13.40;9.30;;;;;;;;;;6203858;23;20222;-71
2022/12/15 16:08:02;;;;;;;12.60;8.50;;;;;;;;;;6211407;23;20151;-71
2022/12/15 16:10:27;;;;;;;9.93;8.93;;;;;;;;;;6184966;23;20196;-71
2022/12/15 16:12:54;;;;;;;13.83;9.00;;;;;;;;;;6209817;23;20371;-71
2022/12/15 16:15:21;;;;;;;16.30;9.40;;;;;;;;;;6210327;23;20140;-71
2022/12/15 16:17:47;;;;;;;12.00;8.03;;;;;;;;;;6211461;23;20908;-71
2022/12/15 16:20:13;;;;;;;12.10;8.70;;;;;;;;;;6209394;23;20387;-71
2022/12/15 16:22:39;;;;;;;14.60;9.73;;;;;;;;;;6181881;23;20684;-71
2022/12/15 16:25:05;;;;;;;15.13;10.07;;;;;;;;;;6181876;23;20410;-71
2022/12/15 16:27:30;;;;;;;14.67;9.80;;;;;;;;;;6206841;23;20364;-71
2022/12/15 16:29:57;;;;;;;11.23;9.37;;;;;;;;;;6182846;23;20195;-71
2022/12/15 16:32:22;;;;;;;13.40;10.03;;;;;;;;;;6204165;23;20155;-71
2022/12/15 16:34:48;;;;;;;21.23;11.13;;;;;;;;;;6184453;23;20712;-71
2022/12/15 16:37:32;;;;;;;12.80;10.80;;;;;;;;;;6183379;23;20152;-72
2022/12/15 16:39:57;;;;;;;17.20;11.47;;;;;;;;;;6211711;23;20415;-71
2022/12/15 16:42:23;;;;;;;12.87;10.20;;;;;;;;;;6182777;23;20387;-72
2022/12/15 16:44:48;;;;;;;10.13;8.60;;;;;;;;;;6206981;23;20151;-70
2022/12/15 16:47:13;;;;;;;13.97;10.20;;;;;;;;;;6205637;23;20148;-72
2022/12/15 16:49:39;;;;;;;18.87;10.60;;;;;;;;;;6209027;23;20257;-72
2022/12/15 16:52:04;;;;;;;12.97;9.73;;;;;;;;;;6210213;23;20220;-72
2022/12/15 16:54:30;;;;;;;17.60;10.80;;;;;;;;;;6206309;23;20144;-71
2022/12/15 16:56:55;;;;;;;14.90;10.93;;;;;;;;;;6208419;23;20144;-71
2022/12/15 16:59:22;;;;;;;16.80;10.23;;;;;;;;;;6206886;23;20482;-73
2022/12/15 17:01:48;;;;;;;13.50;9.30;;;;;;;;;;6207861;23;20914;-71
2022/12/15 17:04:15;;;;;;;18.03;11.80;;;;;;;;;;6201788;23;20371;-72
2022/12/15 17:06:40;;;;;;;18.30;11.77;;;;;;;;;;6178560;23;20305;-73
2022/12/15 17:09:07;;;;;;;14.40;9.87;;;;;;;;;;6205553;23;20891;-72
2022/12/15 17:11:33;;;;;;;16.43;11.23;;;;;;;;;;6182655;23;20664;-72
2022/12/15 17:14:07;;;;;;;17.57;11.33;;;;;;;;;;6208820;23;20363;-71
2022/12/15 17:16:33;;;;;;;15.33;10.90;;;;;;;;;;6207181;23;20462;-72
2022/12/15 17:18:58;;;;;;;17.50;11.40;;;;;;;;;;6210676;23;20842;-73
2022/12/15 17:21:42;;;;;;;15.57;11.50;;;;;;;;;;6205315;23;20241;-72
2022/12/15 17:24:12;;;;;;;15.73;11.00;;;;;;;;;;6207051;23;20179;-73
2022/12/15 17:26:38;;;;;;;17.20;11.13;;;;;;;;;;6208159;23;20441;-72
2022/12/15 17:29:12;;;;;;;17.63;10.80;;;;;;;;;;6206757;23;20367;-71
2022/12/15 17:31:37;;;;;;;16.50;11.80;;;;;;;;;;6207302;23;20202;-73
2022/12/15 17:34:18;;;;;;;14.20;11.40;;;;;;;;;;6209636;23;20835;-71
2022/12/15 17:36:44;;;;;;;17.07;11.60;;;;;;;;;;6183179;23;20678;-72